»·PEaware :: N142D KCRQ-KWHP

N142D :: KCRQ-KWHP

FLIGHT INFORMATION

Flight Status: Arrived
Operator: Privately registered:
United States
More flights under this callsign
Pilot: Martin A. (6413)
Aircraft: CIRRUS SR-22
(SR22)
More flights by this aircraft type
Origin: KCRQ McClellan-Palomar
United States
Destination: KWHP Whiteman
United States
More flights between these airports :: More routes between these airports
Route: OCN V23 POPPR SMO125 SMO SMO317 CANOG
File this flight plan on PilotEdge
Remarks: TEC route SANP15
Altitude:
(Current/Filed)
6,000ft
Speed:
(Current/Filed)
173kts
Departed: 10-Nov-23 02:21 PM
Arrived: 10-Nov-23 03:08 PM
Distance/Time
Traveled:
88nm/0:47
Distance/Time
To Go:
Arrived

Flight Plot

Page will automatically refresh every two minutes.


Map Options




Map Legend


Flown Route
Filed Route
Departure Airport
Arrival Airport
Navaid (VOR, NDB)
Fix

Horizontal Profiles

Position Reports

Time Latitude Longitude Heading Altitude Ground
Speed
10-Nov-23 13:34 33.126286 -117.283392 77 326ft 0kts
10-Nov-23 13:35 33.126286 -117.283392 77 326ft 0kts
10-Nov-23 13:36 33.126286 -117.283392 77 326ft 0kts
10-Nov-23 13:37 33.126286 -117.283392 77 326ft 0kts
10-Nov-23 13:38 33.126286 -117.283392 77 326ft 0kts
10-Nov-23 13:39 33.126286 -117.283392 77 326ft 0kts
10-Nov-23 13:40 33.126286 -117.283392 77 326ft 0kts
10-Nov-23 13:41 33.126286 -117.283392 77 326ft 0kts
10-Nov-23 13:43 33.126286 -117.283392 77 326ft 0kts
10-Nov-23 13:44 33.126286 -117.283392 77 326ft 0kts
10-Nov-23 13:45 33.126286 -117.283392 77 326ft 0kts
10-Nov-23 13:46 33.126286 -117.283392 77 326ft 0kts
10-Nov-23 13:47 33.126286 -117.283392 77 326ft 0kts
10-Nov-23 13:48 33.126286 -117.283392 77 326ft 0kts
10-Nov-23 13:49 33.126286 -117.283392 77 326ft 0kts
10-Nov-23 13:50 33.126286 -117.283392 77 326ft 0kts
10-Nov-23 13:51 33.126286 -117.283392 77 326ft 0kts
10-Nov-23 13:52 33.126286 -117.283392 77 326ft 0kts
10-Nov-23 13:53 33.126286 -117.283392 77 326ft 0kts
10-Nov-23 13:54 33.126286 -117.283392 77 326ft 0kts
10-Nov-23 13:55 33.126286 -117.283392 77 335ft 0kts
10-Nov-23 13:56 33.126286 -117.283392 77 335ft 0kts
10-Nov-23 13:57 33.126286 -117.283392 77 335ft 0kts
10-Nov-23 13:58 33.126286 -117.283392 77 335ft 0kts
10-Nov-23 13:59 33.126286 -117.283392 77 335ft 0kts
10-Nov-23 14:00 33.126286 -117.283392 77 335ft 0kts
10-Nov-23 14:01 33.126286 -117.283392 77 335ft 0kts
10-Nov-23 14:02 33.126286 -117.283392 77 335ft 0kts
10-Nov-23 14:03 33.126286 -117.283392 77 335ft 0kts
10-Nov-23 14:04 33.126286 -117.283392 77 326ft 0kts
10-Nov-23 14:05 33.126286 -117.283392 77 326ft 0kts
10-Nov-23 14:06 33.126286 -117.283392 77 326ft 0kts
10-Nov-23 14:07 33.126286 -117.283392 77 326ft 0kts
10-Nov-23 14:08 33.126286 -117.283392 77 326ft 0kts
10-Nov-23 14:09 33.126286 -117.283392 77 326ft 0kts
10-Nov-23 14:10 33.126286 -117.283392 77 326ft 0kts
10-Nov-23 14:11 33.126442 -117.283176 10 324ft 5kts
10-Nov-23 14:11 33.127290 -117.280935 77 326ft 18kts
10-Nov-23 14:13 33.128474 -117.273555 79 326ft 16kts
10-Nov-23 14:14 33.128412 -117.272077 315 326ft 0kts
10-Nov-23 14:15 33.128412 -117.272077 315 326ft 0kts
10-Nov-23 14:15 33.128412 -117.272077 315 326ft 0kts
10-Nov-23 14:16 33.128412 -117.272077 315 326ft 0kts
10-Nov-23 14:17 33.128412 -117.272077 315 326ft 0kts
10-Nov-23 14:18 33.128412 -117.272077 315 326ft 0kts
10-Nov-23 14:20 33.128799 -117.272409 6 327ft 7kts
10-Nov-23 14:20 33.128380 -117.279164 259 412ft 81kts
10-Nov-23 14:21 33.121075 -117.311729 254 1589ft 112kts
10-Nov-23 14:22 33.127104 -117.343617 331 3398ft 120kts
10-Nov-23 14:23 33.156693 -117.363238 334 4978ft 123kts
10-Nov-23 14:24 33.187379 -117.383087 334 5989ft 137kts
10-Nov-23 14:25 33.225612 -117.407723 333 5998ft 164kts
10-Nov-23 14:26 33.261015 -117.443552 309 5990ft 170kts
10-Nov-23 14:27 33.290271 -117.486270 312 5985ft 165kts
10-Nov-23 14:28 33.319824 -117.528622 311 5984ft 166kts
10-Nov-23 14:29 33.349514 -117.571396 312 5988ft 167kts
10-Nov-23 14:30 33.379266 -117.614245 311 5989ft 168kts
10-Nov-23 14:31 33.409112 -117.657239 311 5990ft 166kts
10-Nov-23 14:32 33.438476 -117.699564 312 5993ft 165kts
10-Nov-23 14:33 33.467599 -117.741821 312 5988ft 163kts
10-Nov-23 14:34 33.496495 -117.783519 312 5993ft 163kts
10-Nov-23 14:35 33.525607 -117.825700 312 5993ft 164kts
10-Nov-23 14:36 33.554656 -117.867891 312 5993ft 164kts
10-Nov-23 14:37 33.583885 -117.910336 311 5991ft 164kts
10-Nov-23 14:38 33.613054 -117.952677 312 5990ft 165kts
10-Nov-23 14:39 33.642283 -117.995324 311 5991ft 166kts
10-Nov-23 14:40 33.671818 -118.038241 312 5955ft 166kts
10-Nov-23 14:41 33.701384 -118.081537 312 5954ft 169kts
10-Nov-23 14:42 33.731590 -118.125452 312 5959ft 170kts
10-Nov-23 14:43 33.761737 -118.169723 311 5997ft 171kts
10-Nov-23 14:44 33.792102 -118.214200 312 5996ft 171kts
10-Nov-23 14:45 33.822295 -118.258463 313 5994ft 171kts
10-Nov-23 14:46 33.854629 -118.300016 325 5989ft 168kts
10-Nov-23 14:47 33.890732 -118.336552 322 5998ft 170kts
10-Nov-23 14:48 33.927247 -118.373132 323 6000ft 171kts
10-Nov-23 14:49 33.963553 -118.409676 322 5991ft 162kts
10-Nov-23 14:50 33.997037 -118.443370 323 5991ft 154kts
10-Nov-23 14:51 34.032666 -118.471157 333 5994ft 152kts
10-Nov-23 14:52 34.069838 -118.495043 334 5991ft 151kts
10-Nov-23 14:53 34.107529 -118.519381 334 5846ft 150kts
10-Nov-23 14:54 34.142003 -118.542456 337 5323ft 134kts
10-Nov-23 14:55 34.174297 -118.562581 336 4817ft 127kts
10-Nov-23 14:56 34.205050 -118.582908 332 4304ft 126kts
10-Nov-23 14:57 34.221279 -118.614365 265 3979ft 128kts
10-Nov-23 14:58 34.212249 -118.657091 203 3888ft 144kts
10-Nov-23 14:59 34.206311 -118.630454 58 3898ft 114kts
10-Nov-23 15:00 34.220862 -118.597476 75 3815ft 114kts
10-Nov-23 15:01 34.219994 -118.556711 85 3335ft 122kts
10-Nov-23 15:02 34.222301 -118.518220 84 3176ft 109kts
10-Nov-23 15:03 34.226155 -118.483636 63 3033ft 94kts
10-Nov-23 15:04 34.237044 -118.455056 55 2486ft 93kts
10-Nov-23 15:05 34.258350 -118.437694 42 1686ft 90kts
10-Nov-23 15:06 34.261604 -118.415877 138 982ft 83kts
10-Nov-23 15:07 34.255528 -118.408906 351 937ft 0kts
10-Nov-23 15:08 34.255580 -118.408923 333 940ft 0kts
10-Nov-23 15:09 34.258997 -118.412488 318 965ft 17kts
10-Nov-23 15:10 34.260002 -118.412504 321 969ft 0kts

Navigation Log

Ident Type
Flight plan parsing failed, navigation log unavailable